Time;durP1;ratioP1;P1;durP2;ratioP2;P2;SDS_P1;SDS_P2;PMS_P1;PMS_P2;Temp;Humidity;BMP_temperature;BMP_pressure;BME280_temperature;BME280_humidity;BME280_pressure;Samples;Min_cycle;Max_cycle;Signal;HPM_P1;HPM_P2
2023/01/13 00:00:33;;;;;;;1.85;0.30;;;;;;;9.43;100.00;98423.78;4973844;28;20058;-68
2023/01/13 00:02:58;;;;;;;3.03;0.73;;;;;;;9.47;100.00;98426.91;4974167;28;20161;-67
2023/01/13 00:05:25;;;;;;;1.27;0.40;;;;;;;9.47;100.00;98419.63;4986073;28;20033;-68
2023/01/13 00:07:51;;;;;;;1.83;0.50;;;;;;;9.49;100.00;98419.44;4970461;28;20080;-68
2023/01/13 00:10:16;;;;;;;2.13;0.50;;;;;;;9.52;100.00;98421.72;4973559;28;20034;-68
2023/01/13 00:12:42;;;;;;;1.02;0.30;;;;;;;9.47;100.00;98416.09;4974228;28;20034;-68
2023/01/13 00:15:09;;;;;;;0.50;0.20;;;;;;;9.41;100.00;98424.00;4976125;28;20151;-68
2023/01/13 00:17:34;;;;;;;4.13;0.45;;;;;;;9.40;100.00;98395.31;4978011;28;20025;-68
2023/01/13 00:19:59;;;;;;;5.28;0.45;;;;;;;9.40;100.00;98408.81;4994724;28;20030;-68
2023/01/13 00:22:25;;;;;;;3.33;1.05;;;;;;;9.39;100.00;98406.34;4975566;28;20125;-68
2023/01/13 00:24:50;;;;;;;0.35;0.22;;;;;;;9.38;100.00;98412.78;4997573;28;20478;-68
2023/01/13 00:27:15;;;;;;;1.73;0.30;;;;;;;9.32;100.00;98403.59;4976769;28;20501;-67
2023/01/13 00:29:41;;;;;;;2.72;0.52;;;;;;;9.26;100.00;98404.44;4971297;28;20080;-68
2023/01/13 00:32:06;;;;;;;2.03;0.50;;;;;;;9.27;100.00;98406.09;4994749;28;20108;-68
2023/01/13 00:34:31;;;;;;;1.60;0.30;;;;;;;9.26;100.00;98407.13;4977800;28;20378;-68
2023/01/13 00:36:58;;;;;;;2.25;0.35;;;;;;;9.24;100.00;98405.69;4977322;28;20032;-68
2023/01/13 00:39:23;;;;;;;0.93;0.30;;;;;;;9.24;100.00;98390.31;4985010;28;20033;-68
2023/01/13 00:44:33;;;;;;;1.38;0.30;;;;;;;9.29;100.00;98392.41;4994749;28;20041;-68
2023/01/13 00:46:59;;;;;;;1.35;0.43;;;;;;;9.26;100.00;98382.84;4992802;28;20022;-68
2023/01/13 00:49:25;;;;;;;2.38;0.43;;;;;;;9.30;100.00;98384.09;4986375;28;20023;-68
2023/01/13 00:51:50;;;;;;;2.50;0.40;;;;;;;9.33;100.00;98385.56;4990063;28;20029;-68
2023/01/13 00:54:15;;;;;;;1.17;0.30;;;;;;;9.36;100.00;98377.06;4987337;28;20030;-68
2023/01/13 00:56:41;;;;;;;1.58;0.60;;;;;;;9.32;100.00;98368.50;4976388;28;20053;-68
2023/01/13 00:59:11;;;;;;;2.25;0.50;;;;;;;9.34;100.00;98363.75;4976637;28;20022;-68
2023/01/13 01:01:37;;;;;;;0.20;0.20;;;;;;;9.34;100.00;98368.31;4991431;28;20038;-68
2023/01/13 01:04:02;;;;;;;0.85;0.28;;;;;;;9.37;100.00;98352.53;4983691;28;20030;-68
2023/01/13 01:06:28;;;;;;;5.38;0.52;;;;;;;9.39;100.00;98361.25;4978001;28;20090;-68
2023/01/13 01:08:55;;;;;;;2.33;0.30;;;;;;;9.32;100.00;98356.91;4974605;28;20048;-68
2023/01/13 01:11:23;;;;;;;2.08;0.38;;;;;;;9.34;100.00;98357.53;4991512;28;20018;-68
2023/01/13 01:13:51;;;;;;;1.58;0.50;;;;;;;9.38;100.00;98353.38;4988626;28;20026;-68
2023/01/13 01:16:17;;;;;;;2.10;0.25;;;;;;;9.39;100.00;98349.63;4973659;28;20128;-68
2023/01/13 01:18:45;;;;;;;4.25;0.35;;;;;;;9.33;100.00;98353.19;4992121;28;20442;-68
2023/01/13 01:21:11;;;;;;;3.05;0.40;;;;;;;9.40;100.00;98346.72;4973424;28;20117;-68
2023/01/13 01:23:38;;;;;;;2.17;0.40;;;;;;;9.40;100.00;98341.31;4967820;28;20136;-68
2023/01/13 01:26:06;;;;;;;1.30;0.28;;;;;;;9.39;100.00;98347.75;4998205;28;20028;-68
2023/01/13 01:28:33;;;;;;;1.50;0.30;;;;;;;9.44;100.00;98347.16;4989376;28;20445;-69
2023/01/13 01:30:58;;;;;;;2.13;0.93;;;;;;;9.42;100.00;98347.34;4967110;28;20030;-68
2023/01/13 01:33:25;;;;;;;1.10;0.35;;;;;;;9.42;100.00;98341.94;4973868;28;20398;-68
2023/01/13 01:35:50;;;;;;;1.77;0.50;;;;;;;9.42;100.00;98344.66;4990818;28;20718;-69
2023/01/13 01:38:17;;;;;;;0.73;0.20;;;;;;;9.41;100.00;98347.56;4975304;28;20022;-68
2023/01/13 01:40:42;;;;;;;1.02;0.40;;;;;;;9.41;100.00;98351.09;4974091;28;20506;-68
2023/01/13 01:46:00;;;;;;;4.15;0.32;;;;;;;9.51;100.00;98355.22;4992211;28;20073;-68
2023/01/13 01:48:30;;;;;;;1.50;0.40;;;;;;;9.47;100.00;98354.81;4972427;28;20117;-68
2023/01/13 01:50:55;;;;;;;;;;;;;;;9.53;100.00;98347.75;4989527;28;20033;-67
2023/01/13 01:53:23;;;;;;;0.52;0.20;;;;;;;9.53;100.00;98340.50;4975664;28;20005;-68
2023/01/13 01:55:49;;;;;;;1.10;0.30;;;;;;;9.51;100.00;98339.88;4970353;28;20034;-68
2023/01/13 01:58:25;;;;;;;1.70;0.30;;;;;;;9.50;100.00;98337.38;4974620;28;20027;-67
2023/01/13 02:00:51;;;;;;;1.70;0.17;;;;;;;9.46;100.00;98336.13;4968627;28;20018;-68
2023/01/13 02:03:17;;;;;;;4.72;0.30;;;;;;;9.40;100.00;98338.63;4973773;28;20033;-67
2023/01/13 02:05:42;;;;;;;1.80;0.45;;;;;;;9.40;100.00;98332.38;4978088;28;20394;-67
2023/01/13 02:08:11;;;;;;;3.55;0.40;;;;;;;9.42;100.00;98331.16;4975049;28;20066;-67
2023/01/13 02:10:38;;;;;;;1.80;0.20;;;;;;;9.38;100.00;98331.78;4969733;28;20168;-67
2023/01/13 02:13:07;;;;;;;2.65;0.43;;;;;;;9.36;100.00;98329.28;4981152;28;20068;-68
2023/01/13 02:15:51;;;;;;;1.92;0.40;;;;;;;9.36;100.00;98333.84;4973928;28;20503;-67
2023/01/13 02:18:41;;;;;;;0.73;0.30;;;;;;;9.43;100.00;98335.53;4991041;28;20041;-67
2023/01/13 02:21:13;;;;;;;1.42;0.50;;;;;;;9.44;100.00;98334.47;4971798;28;20030;-67
2023/01/13 02:26:41;;;;;;;2.35;0.38;;;;;;;9.30;100.00;98334.66;4959779;28;20026;-66
2023/01/13 02:32:36;;;;;;;1.63;0.45;;;;;;;9.19;100.00;98325.31;4987522;28;20405;-66
2023/01/13 02:35:12;;;;;;;0.88;0.20;;;;;;;9.24;100.00;98324.69;4973980;28;20036;-66
2023/01/13 02:37:41;;;;;;;0.45;0.30;;;;;;;9.30;100.00;98322.03;4973732;28;20034;-66
2023/01/13 02:40:10;;;;;;;0.90;0.17;;;;;;;9.33;100.00;98312.69;4971875;28;20489;-66
2023/01/13 02:46:00;;;;;;;1.70;0.28;;;;;;;9.39;100.00;98314.53;4994900;28;20386;-66
2023/01/13 02:48:28;;;;;;;0.25;0.10;;;;;;;9.40;100.00;98291.88;4975214;28;20490;-66
2023/01/13 02:51:22;;;;;;;4.00;0.20;;;;;;;9.47;100.00;98313.50;4973543;28;20474;-66
2023/01/13 02:53:52;;;;;;;0.45;0.20;;;;;;;9.51;100.00;98296.69;4972613;28;20037;-67
2023/01/13 02:56:20;;;;;;;0.40;0.20;;;;;;;9.51;100.00;98298.53;4983234;28;20077;-67
2023/01/13 02:58:46;;;;;;;0.90;0.17;;;;;;;9.50;100.00;98292.31;4972085;28;20038;-67
2023/01/13 03:01:12;;;;;;;0.45;0.10;;;;;;;9.54;100.00;98300.84;4968932;28;20026;-67
2023/01/13 03:03:37;;;;;;;2.60;0.40;;;;;;;9.55;100.00;98295.22;4988960;28;20034;-67
2023/01/13 03:06:40;;;;;;;0.30;0.20;;;;;;;9.56;100.00;98298.72;4974569;28;20415;-67
2023/01/13 03:09:23;;;;;;;1.50;0.43;;;;;;;9.57;100.00;98308.50;4980837;28;20026;-68
2023/01/13 03:11:59;;;;;;;2.25;0.30;;;;;;;9.60;100.00;98295.41;4962138;28;20022;-67
2023/01/13 03:14:44;;;;;;;0.85;0.15;;;;;;;9.57;100.00;98297.72;4972223;28;20031;-67
2023/01/13 03:17:43;;;;;;;2.85;0.30;;;;;;;9.58;100.00;98296.66;4987428;28;20113;-68
2023/01/13 03:20:18;;;;;;;0.43;0.10;;;;;;;9.57;100.00;98287.72;4974883;28;20072;-67
2023/01/13 03:22:53;;;;;;;2.60;0.10;;;;;;;9.56;100.00;98291.47;4973923;28;20370;-67
2023/01/13 03:25:27;;;;;;;0.55;0.30;;;;;;;9.55;100.00;98283.59;4971414;28;20138;-68
2023/01/13 03:27:57;;;;;;;1.70;0.40;;;;;;;9.53;100.00;98281.06;4989529;28;20030;-67
2023/01/13 03:30:53;;;;;;;2.08;0.22;;;;;;;9.52;100.00;98281.31;4986412;28;20030;-67
2023/01/13 03:33:27;;;;;;;1.45;0.32;;;;;;;9.55;100.00;98272.78;4971580;28;20398;-67
2023/01/13 03:35:57;;;;;;;2.45;0.20;;;;;;;9.51;100.00;98274.22;4977723;28;20034;-67
2023/01/13 03:38:30;;;;;;;1.05;0.22;;;;;;;9.51;100.00;98268.81;4971532;28;20042;-67
2023/01/13 03:41:00;;;;;;;2.10;0.45;;;;;;;9.53;100.00;98264.88;4975690;28;20044;-67
2023/01/13 03:46:38;;;;;;;2.17;0.25;;;;;;;9.52;100.00;98275.91;4990006;28;20058;-67
2023/01/13 03:49:07;;;;;;;2.63;0.30;;;;;;;9.49;100.00;98270.94;4972865;28;20022;-67
2023/01/13 03:51:35;;;;;;;1.90;0.28;;;;;;;9.48;100.00;98261.97;4978455;28;20026;-67
2023/01/13 03:54:07;;;;;;;0.98;0.25;;;;;;;9.49;100.00;98258.25;4974166;28;20030;-67
2023/01/13 03:56:41;;;;;;;2.67;0.20;;;;;;;9.49;100.00;98262.81;4967982;28;20023;-67
2023/01/13 03:59:13;;;;;;;1.23;0.40;;;;;;;9.45;100.00;98262.41;4971498;28;20030;-67
2023/01/13 04:01:51;;;;;;;1.35;0.22;;;;;;;9.52;100.00;98262.41;4997858;28;20231;-67
2023/01/13 04:04:28;;;;;;;1.85;0.30;;;;;;;9.38;100.00;98229.19;4976322;28;20060;-67
2023/01/13 04:07:02;;;;;;;1.55;0.20;;;;;;;9.56;100.00;98252.81;4972779;28;20482;-68
2023/01/13 04:09:46;;;;;;;0.57;0.20;;;;;;;9.55;100.00;98264.69;4973501;28;20534;-68
2023/01/13 04:12:24;;;;;;;0.95;0.20;;;;;;;9.59;100.00;98255.13;4982403;28;20464;-67
2023/01/13 04:14:50;;;;;;;0.55;0.28;;;;;;;9.56;100.00;98258.22;4975506;28;20029;-68
2023/01/13 04:17:16;;;;;;;3.08;0.30;;;;;;;9.54;100.00;98257.63;4994322;28;20038;-67
2023/01/13 04:19:41;;;;;;;2.00;0.38;;;;;;;9.53;100.00;98247.84;4969267;28;20562;-67
2023/01/13 04:22:06;;;;;;;1.25;0.35;;;;;;;9.53;100.00;98247.84;4982325;28;20030;-68
2023/01/13 04:24:32;;;;;;;1.08;0.30;;;;;;;9.54;100.00;98242.25;4970854;28;20422;-68
2023/01/13 04:26:57;;;;;;;3.50;0.40;;;;;;;9.51;100.00;98241.81;4976238;28;20438;-68
2023/01/13 04:29:22;;;;;;;1.80;0.40;;;;;;;9.52;100.00;98230.81;4976707;28;20026;-67
2023/01/13 04:31:48;;;;;;;0.45;0.25;;;;;;;9.52;100.00;98235.41;4978043;28;20528;-68
2023/01/13 04:34:14;;;;;;;1.48;0.30;;;;;;;9.58;100.00;98237.25;4978578;28;20397;-67
2023/01/13 04:36:39;;;;;;;0.75;0.20;;;;;;;9.63;100.00;98222.06;4976285;28;20026;-69
2023/01/13 04:39:05;;;;;;;0.95;0.20;;;;;;;9.60;100.00;98233.28;4972778;28;20026;-67
2023/01/13 04:41:56;;;;;;;1.17;0.20;;;;;;;9.55;100.00;98232.28;4996285;28;20038;-67
2023/01/13 04:44:15;;;;;;;1.95;0.38;;;;;;;9.56;100.00;98240.19;4994549;28;20398;-67
2023/01/13 04:46:41;;;;;;;1.95;0.20;;;;;;;9.62;100.00;98230.41;4976487;28;20121;-67
2023/01/13 04:49:06;;;;;;;2.05;0.30;;;;;;;9.65;100.00;98230.78;4975419;28;20478;-67
2023/01/13 04:51:31;;;;;;;1.13;0.30;;;;;;;9.64;100.00;98225.59;4976249;28;20100;-68
2023/01/13 04:53:57;;;;;;;1.13;0.35;;;;;;;9.60;100.00;98229.78;4977566;28;20064;-68
2023/01/13 04:56:22;;;;;;;3.58;0.32;;;;;;;9.64;100.00;98228.28;4977227;28;20022;-68
2023/01/13 04:58:47;;;;;;;1.95;1.10;;;;;;;9.65;100.00;98219.16;4990750;28;20029;-68
2023/01/13 05:01:13;;;;;;;3.40;0.40;;;;;;;9.65;100.00;98221.88;4976291;28;20038;-66
2023/01/13 05:03:40;;;;;;;2.22;0.30;;;;;;;9.69;100.00;98222.25;4980095;28;20030;-66
2023/01/13 05:06:05;;;;;;;4.00;0.30;;;;;;;9.71;100.00;98226.41;4973416;28;20072;-68
2023/01/13 05:08:31;;;;;;;1.55;0.30;;;;;;;9.69;100.00;98220.38;4982898;28;20033;-66
2023/01/13 05:10:59;;;;;;;2.15;0.28;;;;;;;9.70;100.00;98223.94;4974733;28;20057;-65
2023/01/13 05:18:53;;;;;;;1.17;0.30;;;;;;;9.65;100.00;98224.56;4987748;28;20490;-66
2023/01/13 05:26:47;;;;;;;1.15;0.30;;;;;;;9.71;100.00;98226.41;4994454;28;20089;-66
2023/01/13 05:29:12;;;;;;;1.65;0.30;;;;;;;9.72;100.00;98229.94;4974016;28;20026;-66
2023/01/13 05:31:37;;;;;;;0.57;0.22;;;;;;;9.69;100.00;98222.25;4973050;28;20030;-66
2023/01/13 05:34:03;;;;;;;0.70;0.20;;;;;;;9.70;100.00;98227.47;4975900;28;20076;-66
2023/01/13 05:36:28;;;;;;;0.77;0.22;;;;;;;9.76;100.00;98225.78;4993385;28;20030;-68
2023/01/13 05:38:54;;;;;;;1.55;0.10;;;;;;;9.70;100.00;98213.13;4987083;28;21276;-65
2023/01/13 05:44:03;;;;;;;3.97;0.30;;;;;;;9.70;100.00;98205.03;4992981;28;20033;-66
2023/01/13 05:46:28;;;;;;;2.15;0.40;;;;;;;9.74;100.00;98207.06;4977996;28;20030;-66
2023/01/13 05:48:55;;;;;;;1.05;0.43;;;;;;;9.75;100.00;98214.16;4968497;28;20927;-66
2023/01/13 05:51:24;;;;;;;2.35;0.47;;;;;;;9.72;100.00;98203.78;4976508;28;20117;-66
2023/01/13 05:53:50;;;;;;;2.92;0.40;;;;;;;9.71;100.00;98212.91;4993155;28;20160;-66
2023/01/13 05:56:16;;;;;;;0.95;0.20;;;;;;;9.73;100.00;98218.09;4970597;28;20117;-66
2023/01/13 05:58:42;;;;;;;1.55;0.17;;;;;;;9.74;100.00;98211.66;4963129;28;20144;-66
2023/01/13 06:01:08;;;;;;;2.03;0.20;;;;;;;9.81;100.00;98207.06;4973739;28;20026;-66
2023/01/13 06:03:35;;;;;;;1.20;0.43;;;;;;;9.84;100.00;98215.56;4974840;28;20088;-66
2023/01/13 06:06:02;;;;;;;1.77;0.30;;;;;;;9.83;100.00;98210.38;4989954;28;20110;-66
2023/01/13 06:08:29;;;;;;;0.32;0.20;;;;;;;9.81;100.00;98218.69;4975941;28;20568;-66
2023/01/13 06:10:55;;;;;;;1.33;0.30;;;;;;;9.76;100.00;98207.69;4975642;28;20493;-66
2023/01/13 06:13:21;;;;;;;1.23;0.30;;;;;;;9.81;100.00;98224.09;4983858;28;20026;-67
2023/01/13 06:15:46;;;;;;;0.90;0.20;;;;;;;9.79;100.00;98209.97;4990474;28;20030;-67
2023/01/13 06:18:11;;;;;;;1.05;0.20;;;;;;;9.80;100.00;98217.03;4989645;28;20034;-67
2023/01/13 06:20:37;;;;;;;1.20;0.20;;;;;;;9.80;100.00;98208.13;4975110;28;20034;-66
2023/01/13 06:23:03;;;;;;;1.83;0.30;;;;;;;9.77;100.00;98206.66;4992486;28;20045;-66
2023/01/13 06:25:43;;;;;;;2.03;0.38;;;;;;;9.78;100.00;98208.31;4969404;28;20050;-66
2023/01/13 06:28:09;;;;;;;0.17;0.10;;;;;;;9.78;100.00;98216.41;4975848;28;20053;-66
2023/01/13 06:30:38;;;;;;;0.13;0.03;;;;;;;9.76;100.00;98194.19;4998810;28;20506;-66
2023/01/13 06:33:10;;;;;;;0.85;0.28;;;;;;;9.85;100.00;98202.88;4975067;28;20110;-68
2023/01/13 06:35:38;;;;;;;0.43;0.20;;;;;;;9.82;100.00;98208.72;4974255;28;20388;-67
2023/01/13 06:38:09;;;;;;;3.72;0.40;;;;;;;9.72;100.00;98203.78;4971278;28;20033;-66
2023/01/13 06:40:35;;;;;;;1.20;0.20;;;;;;;9.81;100.00;98216.00;4969615;28;20054;-67
2023/01/13 06:43:14;;;;;;;1.17;0.28;;;;;;;9.83;100.00;98204.97;4972074;28;20027;-67
2023/01/13 06:45:42;;;;;;;1.13;0.30;;;;;;;9.83;100.00;98205.81;4967813;28;20030;-68
2023/01/13 06:48:07;;;;;;;2.00;0.30;;;;;;;9.84;100.00;98212.84;4969332;28;20030;-68
2023/01/13 06:50:33;;;;;;;0.73;0.32;;;;;;;9.82;100.00;98206.88;4968553;28;20036;-68
2023/01/13 06:52:58;;;;;;;0.57;0.30;;;;;;;9.85;100.00;98211.84;4975208;28;20076;-68
2023/01/13 06:55:24;;;;;;;0.75;0.20;;;;;;;9.81;100.00;98212.47;4970728;28;20029;-68
2023/01/13 06:57:54;;;;;;;0.93;0.20;;;;;;;9.78;100.00;98208.31;4972949;28;20065;-66
2023/01/13 07:00:22;;;;;;;0.75;0.25;;;;;;;9.66;100.00;98204.59;4962865;28;20120;-67
2023/01/13 07:02:47;;;;;;;2.25;0.20;;;;;;;9.58;100.00;98213.75;4984776;28;20091;-57
2023/01/13 07:05:13;;;;;;;0.68;0.22;;;;;;;9.60;100.00;98205.47;4986503;28;20077;-57
2023/01/13 07:07:39;;;;;;;1.45;0.15;;;;;;;9.62;100.00;98209.63;4972693;28;20061;-58
2023/01/13 07:10:08;;;;;;;1.00;0.40;;;;;;;9.62;100.00;98206.91;4972257;28;20042;-57
2023/01/13 07:15:17;;;;;;;;;;;;;;;9.66;100.00;98210.00;4973597;28;20398;-66
2023/01/13 07:15:19;;;;;;;3.22;0.20;;;;;;;9.68;100.00;98207.09;4984019;28;20294;-66
2023/01/13 07:17:44;;;;;;;0.10;0.10;;;;;;;9.66;100.00;98218.09;4973671;28;20038;-67
2023/01/13 07:20:10;;;;;;;0.35;0.20;;;;;;;9.62;100.00;98211.50;4990300;28;20477;-65
2023/01/13 07:22:35;;;;;;;0.70;0.40;;;;;;;9.41;100.00;98224.19;4992690;28;20025;-64
2023/01/13 07:25:01;;;;;;;1.10;0.50;;;;;;;9.22;100.00;98225.03;4986525;28;20023;-64
2023/01/13 07:27:26;;;;;;;0.35;0.20;;;;;;;9.12;100.00;98230.03;4977931;28;20034;-64
2023/01/13 07:29:51;;;;;;;1.27;0.30;;;;;;;9.09;100.00;98227.75;4990750;28;20037;-64
2023/01/13 07:32:17;;;;;;;0.30;0.10;;;;;;;9.12;100.00;98227.34;4980714;28;20050;-64
2023/01/13 07:34:42;;;;;;;2.70;0.30;;;;;;;9.13;100.00;98221.72;4992215;28;20026;-65
2023/01/13 07:37:07;;;;;;;0.82;0.20;;;;;;;9.20;100.00;98227.97;4963171;28;20094;-64
2023/01/13 07:39:33;;;;;;;0.85;0.32;;;;;;;9.28;100.00;98240.41;4973500;28;20029;-65
2023/01/13 07:44:42;;;;;;;0.82;0.43;;;;;;;9.41;100.00;98229.59;5001687;28;20037;-65
2023/01/13 07:47:09;;;;;;;2.20;0.40;;;;;;;9.44;100.00;98229.16;4978546;28;20026;-65
2023/01/13 07:49:35;;;;;;;0.65;0.40;;;;;;;9.47;100.00;98221.69;4989535;28;20033;-57
2023/01/13 07:52:01;;;;;;;1.02;0.20;;;;;;;9.56;100.00;98225.81;4975358;28;20026;-56
2023/01/13 07:54:26;;;;;;;0.68;0.40;;;;;;;9.58;100.00;98229.16;4973517;28;20029;-56
2023/01/13 07:56:54;;;;;;;0.80;0.32;;;;;;;9.61;100.00;98226.00;4981538;28;20026;-57
2023/01/13 07:59:19;;;;;;;2.08;0.20;;;;;;;9.58;100.00;98224.56;4993788;28;20036;-57
2023/01/13 08:01:45;;;;;;;1.40;0.45;;;;;;;9.61;100.00;98226.00;4993471;28;20530;-57
2023/01/13 08:04:10;;;;;;;0.60;0.30;;;;;;;9.61;100.00;98228.72;4976683;28;20113;-56
2023/01/13 08:06:39;;;;;;;1.20;0.40;;;;;;;9.61;100.00;98231.41;4976434;28;20034;-57
2023/01/13 08:09:05;;;;;;;;;;;;;;;9.60;100.00;98236.00;4996477;28;20554;-57
2023/01/13 08:11:30;;;;;;;1.60;0.80;;;;;;;9.63;100.00;98248.25;4978356;28;19993;-57
2023/01/13 08:13:59;;;;;;;0.47;0.10;;;;;;;9.69;100.00;98246.56;4991630;28;20050;-57
2023/01/13 08:16:24;;;;;;;0.52;0.30;;;;;;;9.69;100.00;98258.19;4973582;28;20456;-56
2023/01/13 08:18:50;;;;;;;2.53;0.20;;;;;;;9.69;100.00;98262.78;4972840;28;20117;-56
2023/01/13 08:21:15;;;;;;;4.72;0.30;;;;;;;9.50;100.00;98259.91;4988188;28;20018;-60
2023/01/13 08:23:42;;;;;;;0.60;0.20;;;;;;;9.40;100.00;98279.22;4973168;28;20107;-61
2023/01/13 08:26:11;;;;;;;0.40;0.30;;;;;;;9.17;100.00;98287.75;4990128;28;20470;-61
2023/01/13 08:28:39;;;;;;;0.52;0.30;;;;;;;8.97;100.00;98295.81;4975666;28;20117;-61
2023/01/13 08:31:06;;;;;;;0.77;0.20;;;;;;;8.79;100.00;98357.63;4967222;28;20546;-62
2023/01/13 08:33:32;;;;;;;3.03;0.32;;;;;;;8.19;100.00;98381.59;4975102;28;20034;-64
2023/01/13 08:36:02;;;;;;;0.55;0.45;;;;;;;7.81;100.00;98391.91;4976347;28;20467;-62
2023/01/13 08:38:27;;;;;;;1.55;0.30;;;;;;;7.61;100.00;98403.34;4976500;28;20509;-64
2023/01/13 08:40:53;;;;;;;0.20;0.10;;;;;;;7.45;100.00;98392.84;4992946;28;20117;-62
2023/01/13 08:43:18;;;;;;;0.80;0.20;;;;;;;7.44;100.00;98399.25;4983501;28;20030;-63
2023/01/13 08:45:44;;;;;;;1.38;0.00;;;;;;;7.35;100.00;98412.00;4992029;28;20039;-62
2023/01/13 08:48:09;;;;;;;0.88;0.10;;;;;;;7.25;100.00;98430.31;4976319;28;20026;-61
2023/01/13 08:50:35;;;;;;;0.82;0.08;;;;;;;7.22;100.00;98444.16;4981551;28;20030;-63
2023/01/13 08:53:00;;;;;;;1.38;0.20;;;;;;;7.14;100.00;98434.34;4992192;28;20414;-62
2023/01/13 08:55:26;;;;;;;0.13;0.05;;;;;;;7.09;100.00;98455.59;4978883;28;20073;-62
2023/01/13 08:57:51;;;;;;;1.10;0.30;;;;;;;7.03;100.00;98472.50;4972908;28;20029;-65
2023/01/13 09:00:17;;;;;;;0.60;0.20;;;;;;;7.03;100.00;98461.75;4974686;28;20034;-64
2023/01/13 09:02:42;;;;;;;0.98;0.20;;;;;;;7.05;100.00;98462.41;4975521;28;20049;-62
2023/01/13 09:05:09;;;;;;;1.42;0.20;;;;;;;7.00;100.00;98467.53;4995002;28;20878;-64
2023/01/13 09:07:36;;;;;;;3.85;0.70;;;;;;;6.94;100.00;98463.72;4991648;28;20098;-64
2023/01/13 09:10:04;;;;;;;3.92;1.17;;;;;;;6.94;100.00;98471.81;4991236;28;20030;-61
2023/01/13 09:15:17;;;;;;;3.10;1.08;;;;;;;6.98;100.00;98466.88;4987412;28;20113;-61
2023/01/13 09:17:44;;;;;;;5.80;1.50;;;;;;;6.98;100.00;98467.69;4972335;28;20030;-61
2023/01/13 09:20:11;;;;;;;2.05;0.90;;;;;;;7.00;100.00;98483.66;4995368;28;20034;-61
2023/01/13 09:22:37;;;;;;;6.88;1.95;;;;;;;7.07;100.00;98489.94;4973664;28;20036;-61
2023/01/13 09:25:04;;;;;;;1.13;0.55;;;;;;;7.13;100.00;98489.19;4974711;28;20121;-61
2023/01/13 09:27:30;;;;;;;2.70;0.40;;;;;;;7.22;100.00;98484.53;4978847;28;20083;-60
2023/01/13 09:29:55;;;;;;;2.70;0.40;;;;;;;7.24;100.00;98493.25;4989569;28;20112;-61
2023/01/13 09:32:20;;;;;;;3.03;0.95;;;;;;;7.15;100.00;98475.53;4991944;28;20365;-61
2023/01/13 09:35:01;;;;;;;2.88;1.20;;;;;;;7.26;100.00;98493.91;4975479;28;20088;-61
2023/01/13 09:37:45;;;;;;;2.38;1.10;;;;;;;7.31;100.00;98501.38;4973980;28;20022;-61
2023/01/13 09:40:17;;;;;;;0.98;0.60;;;;;;;7.34;100.00;98495.63;4968537;28;20501;-61
2023/01/13 09:45:59;;;;;;;3.38;0.98;;;;;;;7.56;100.00;98499.16;4985960;28;21185;-62
2023/01/13 09:48:33;;;;;;;3.10;1.10;;;;;;;7.54;100.00;98493.97;4968306;28;20499;-61
2023/01/13 09:51:15;;;;;;;1.98;0.75;;;;;;;7.61;100.00;98486.81;4976226;28;20030;-61
2023/01/13 09:53:54;;;;;;;1.27;0.68;;;;;;;7.53;100.00;98499.56;4976527;28;20030;-61
2023/01/13 09:56:21;;;;;;;1.33;0.43;;;;;;;7.51;100.00;98507.81;4973936;28;20022;-62
2023/01/13 09:58:47;;;;;;;2.67;1.00;;;;;;;7.56;100.00;98504.56;4993846;28;20486;-61
2023/01/13 10:01:25;;;;;;;3.75;0.68;;;;;;;7.63;100.00;98495.53;4974145;28;20105;-62
2023/01/13 10:03:51;;;;;;;2.93;0.60;;;;;;;7.65;100.00;98500.69;4990361;28;20026;-61
2023/01/13 10:06:20;;;;;;;3.00;0.65;;;;;;;7.66;100.00;98500.53;4974031;28;20030;-62
2023/01/13 10:08:47;;;;;;;3.70;0.40;;;;;;;7.74;100.00;98496.88;4986850;28;20049;-62
2023/01/13 10:14:31;;;;;;;22.90;7.13;;;;;;;8.02;100.00;98493.41;4996358;28;20037;-61
2023/01/13 10:17:02;;;;;;;4.25;1.23;;;;;;;8.06;100.00;98500.88;4971261;28;20952;-62
2023/01/13 10:19:55;;;;;;;4.43;1.80;;;;;;;8.16;100.00;98487.06;4990371;28;20124;-61
2023/01/13 10:23:01;;;;;;;9.25;3.97;;;;;;;8.22;100.00;98483.59;4970271;28;20038;-61
2023/01/13 10:25:55;;;;;;;6.47;1.35;;;;;;;8.43;100.00;98474.63;4991055;28;20038;-62
2023/01/13 10:28:22;;;;;;;8.57;1.10;;;;;;;8.62;100.00;98461.47;4984091;28;20121;-62
2023/01/13 10:30:52;;;;;;;2.03;0.65;;;;;;;8.80;100.00;98461.78;4991685;28;20109;-63
2023/01/13 10:33:26;;;;;;;3.67;1.05;;;;;;;9.23;100.00;98455.31;4973618;28;20026;-62
2023/01/13 10:36:00;;;;;;;7.82;2.55;;;;;;;9.84;100.00;98442.50;4983294;28;20042;-62
2023/01/13 10:38:36;;;;;;;3.63;1.08;;;;;;;10.07;100.00;98435.88;4975121;28;20368;-62
2023/01/13 10:41:17;;;;;;;6.38;1.58;;;;;;;10.01;100.00;98444.81;4977131;28;20554;-62
2023/01/13 10:43:56;;;;;;;2.60;0.50;;;;;;;9.70;100.00;98448.13;4973323;28;20125;-62
2023/01/13 10:46:21;;;;;;;1.73;0.70;;;;;;;9.67;100.00;98460.19;4991726;28;20022;-62
2023/01/13 10:48:58;;;;;;;2.30;0.55;;;;;;;9.64;100.00;98460.56;4984417;28;20030;-61
2023/01/13 10:51:43;;;;;;;2.58;0.50;;;;;;;9.38;100.00;98472.19;4976235;28;20019;-62
2023/01/13 10:54:11;;;;;;;4.38;0.60;;;;;;;8.86;100.00;98479.88;4972080;28;20026;-62
2023/01/13 10:56:40;;;;;;;4.95;1.05;;;;;;;8.82;100.00;98478.59;4992477;28;20038;-62
2023/01/13 10:59:23;;;;;;;2.83;0.93;;;;;;;8.58;100.00;98479.91;4991814;28;20043;-62
2023/01/13 11:01:53;;;;;;;6.53;0.63;;;;;;;8.41;100.00;98476.72;4970393;28;20084;-62
2023/01/13 11:04:27;;;;;;;4.30;0.50;;;;;;;8.39;100.00;98477.91;4992315;28;20150;-62
2023/01/13 11:06:53;;;;;;;5.75;0.73;;;;;;;8.37;100.00;98479.97;4983077;28;20045;-62
2023/01/13 11:09:21;;;;;;;1.00;0.38;;;;;;;8.48;100.00;98474.06;4971380;28;20517;-63
2023/01/13 11:11:49;;;;;;;5.00;0.38;;;;;;;8.52;100.00;98484.25;4975250;28;20030;-63
2023/01/13 11:14:38;;;;;;;2.20;0.50;;;;;;;8.47;100.00;98492.09;4977439;28;20057;-62
2023/01/13 11:17:44;;;;;;;4.43;0.77;;;;;;;8.60;100.00;98477.88;4969873;28;20133;-62
2023/01/13 11:20:41;;;;;;;4.93;0.65;;;;;;;8.56;100.00;98490.06;4906207;29;20350;-62
2023/01/13 11:23:17;;;;;;;10.93;2.22;;;;;;;8.54;100.00;98495.69;4973867;28;20456;-62
2023/01/13 11:25:47;;;;;;;5.05;1.00;;;;;;;8.40;100.00;98493.09;4989347;28;20026;-62
2023/01/13 11:28:31;;;;;;;0.65;0.30;;;;;;;8.31;100.00;98490.50;4970255;28;20037;-57
2023/01/13 11:31:06;;;;;;;4.00;0.82;;;;;;;8.31;100.00;98484.28;4976244;28;20022;-61
2023/01/13 11:33:42;;;;;;;2.42;0.70;;;;;;;8.38;100.00;98497.78;4990878;28;20065;-62
2023/01/13 11:36:21;;;;;;;2.17;0.57;;;;;;;8.28;100.00;98499.00;4989643;28;20054;-62
2023/01/13 11:39:10;;;;;;;2.58;0.80;;;;;;;8.19;100.00;98502.03;4978048;28;20477;-61
2023/01/13 11:42:19;;;;;;;10.13;0.90;;;;;;;8.20;100.00;98499.13;4949105;28;20074;-62
2023/01/13 11:45:15;;;;;;;7.78;0.70;;;;;;;8.11;100.00;98501.13;4992487;28;20034;-61
2023/01/13 11:47:43;;;;;;;5.53;1.48;;;;;;;8.22;100.00;98518.63;4938232;28;20034;-62
2023/01/13 11:50:21;;;;;;;3.80;1.45;;;;;;;8.29;100.00;98508.72;4991385;28;20125;-62
2023/01/13 11:53:14;;;;;;;4.30;0.60;;;;;;;8.41;100.00;98503.69;4973811;28;20520;-62
2023/01/13 11:55:42;;;;;;;2.35;0.88;;;;;;;8.52;100.00;98502.28;4974193;28;20049;-63
2023/01/13 11:59:06;;;;;;;8.65;1.23;;;;;;;8.77;100.00;98516.13;4997586;28;20168;-63
2023/01/13 12:01:50;;;;;;;9.88;1.25;;;;;;;9.09;100.00;98486.81;4939453;28;20050;-62
2023/01/13 12:04:28;;;;;;;5.70;0.70;;;;;;;9.24;100.00;98492.88;4992128;28;20065;-61
2023/01/13 12:07:21;;;;;;;2.00;0.60;;;;;;;9.73;100.00;98480.97;4978330;28;20030;-62
2023/01/13 12:10:05;;;;;;;5.18;0.68;;;;;;;11.02;100.00;98463.34;4987031;28;20110;-62
2023/01/13 12:12:32;;;;;;;4.70;0.52;;;;;;;11.75;100.00;98467.53;4974900;28;20080;-62
2023/01/13 12:15:21;;;;;;;3.38;0.70;;;;;;;13.31;100.00;98447.44;4978935;28;20022;-61
2023/01/13 12:18:25;;;;;;;1.75;0.50;;;;;;;13.87;100.00;98447.25;4972050;28;20030;-61
2023/01/13 12:21:31;;;;;;;2.38;0.55;;;;;;;14.04;100.00;98442.75;4970098;28;20120;-61
2023/01/13 12:24:32;;;;;;;4.45;1.00;;;;;;;12.87;100.00;98446.69;4966462;28;20034;-61
2023/01/13 12:27:08;;;;;;;4.90;1.00;;;;;;;11.20;100.00;98459.94;4918071;29;20088;-61
2023/01/13 12:29:35;;;;;;;8.13;0.93;;;;;;;10.09;100.00;98456.25;4950170;28;20061;-61
2023/01/13 12:32:05;;;;;;;3.78;0.80;;;;;;;9.90;100.00;98475.16;4974738;28;20088;-61
2023/01/13 12:34:46;;;;;;;5.90;0.80;;;;;;;9.51;100.00;98487.56;4984113;28;20038;-61